createdAt,value
2022-08-24T00:01:49.929Z,2.72
2022-08-24T00:04:17.370Z,2.80
2022-08-24T00:06:45.001Z,2.95
2022-08-24T00:09:12.186Z,2.80
2022-08-24T00:11:39.336Z,2.60
2022-08-24T00:14:06.837Z,2.70
2022-08-24T00:16:35.408Z,2.47
2022-08-24T00:19:02.574Z,2.33
2022-08-24T00:21:29.991Z,2.47
2022-08-24T00:23:57.130Z,2.80
2022-08-24T00:26:28.590Z,2.30
2022-08-24T00:28:56.370Z,2.33
2022-08-24T00:31:23.627Z,2.50
2022-08-24T00:33:50.946Z,2.80
2022-08-24T00:36:18.181Z,2.45
2022-08-24T00:38:45.312Z,2.38
2022-08-24T00:41:14.458Z,2.83
2022-08-24T00:43:51.274Z,2.60
2022-08-24T00:46:21.431Z,2.78
2022-08-24T00:48:50.083Z,2.60
2022-08-24T00:51:20.271Z,2.90
2022-08-24T00:53:49.850Z,2.75
2022-08-24T00:56:20.182Z,2.42
2022-08-24T00:58:56.054Z,2.80
2022-08-24T01:01:25.594Z,2.78
2022-08-24T01:03:56.758Z,2.70
2022-08-24T01:06:24.330Z,2.75
2022-08-24T01:08:56.397Z,2.80
2022-08-24T01:13:53.449Z,2.90
2022-08-24T01:16:42.118Z,2.80
2022-08-24T01:19:27.524Z,2.95
2022-08-24T01:21:59.655Z,2.63
2022-08-24T01:24:26.864Z,2.88
2022-08-24T01:26:54.008Z,2.70
2022-08-24T01:29:23.650Z,2.50
2022-08-24T01:31:51.303Z,2.58
2022-08-24T01:34:18.494Z,2.47
2022-08-24T01:36:55.855Z,2.40
2022-08-24T01:39:25.840Z,2.30
2022-08-24T01:41:53.267Z,2.38
2022-08-24T01:44:21.286Z,2.50
2022-08-24T01:46:49.480Z,2.38
2022-08-24T01:49:17.357Z,2.33
2022-08-24T01:51:46.240Z,2.65
2022-08-24T01:54:14.592Z,2.47
2022-08-24T01:56:41.846Z,2.40
2022-08-24T01:59:09.483Z,2.60
2022-08-24T02:01:38.782Z,2.53
2022-08-24T02:04:09.535Z,2.30
2022-08-24T02:06:36.986Z,2.45
2022-08-24T02:09:04.743Z,2.55
2022-08-24T02:11:32.361Z,2.17
2022-08-24T02:13:59.566Z,2.10
2022-08-24T02:16:28.681Z,2.20
2022-08-24T02:18:56.320Z,2.90
2022-08-24T02:21:23.774Z,2.20
2022-08-24T02:23:51.914Z,2.95
2022-08-24T02:26:19.383Z,2.00
2022-08-24T02:28:46.510Z,2.40
2022-08-24T02:31:14.351Z,2.17
2022-08-24T02:33:42.015Z,2.50
2022-08-24T02:36:25.169Z,2.47
2022-08-24T02:38:54.230Z,2.45
2022-08-24T02:41:22.005Z,2.40
2022-08-24T02:43:49.151Z,2.67
2022-08-24T02:46:23.289Z,2.25
2022-08-24T02:49:08.322Z,2.42
2022-08-24T02:51:40.522Z,2.20
2022-08-24T02:54:11.615Z,2.28
2022-08-24T02:56:38.791Z,2.30
2022-08-24T02:59:05.930Z,2.30
2022-08-24T03:01:33.143Z,2.08
2022-08-24T03:04:00.324Z,2.08
2022-08-24T03:06:27.440Z,2.20
2022-08-24T03:08:56.414Z,1.90
2022-08-24T03:11:27.620Z,1.85
2022-08-24T03:13:55.852Z,2.20
2022-08-24T03:16:23.138Z,2.05
2022-08-24T03:18:50.347Z,2.30
2022-08-24T03:21:17.620Z,2.20
2022-08-24T03:23:44.796Z,2.10
2022-08-24T03:26:12.905Z,2.33
2022-08-24T03:28:40.093Z,1.98
2022-08-24T03:31:07.685Z,2.30
2022-08-24T03:33:35.111Z,2.15
2022-08-24T03:36:02.630Z,2.30
2022-08-24T03:38:30.110Z,1.95
2022-08-24T03:40:57.566Z,2.13
2022-08-24T03:43:43.648Z,2.20
2022-08-24T03:46:11.971Z,2.30
2022-08-24T03:48:40.566Z,2.58
2022-08-24T03:51:08.168Z,2.15
2022-08-24T03:53:35.269Z,2.35
2022-08-24T03:56:06.903Z,2.33
2022-08-24T03:58:35.730Z,2.47
2022-08-24T04:01:03.766Z,2.55
2022-08-24T04:03:32.560Z,2.45
2022-08-24T04:06:01.234Z,2.70
2022-08-24T04:08:28.415Z,2.60
2022-08-24T04:10:55.539Z,2.75
2022-08-24T04:13:22.663Z,2.70
2022-08-24T04:15:51.356Z,2.72
2022-08-24T04:18:18.502Z,2.80
2022-08-24T04:20:45.670Z,3.10
2022-08-24T04:23:14.854Z,2.72
2022-08-24T04:25:42.416Z,2.70
2022-08-24T04:28:09.841Z,2.80
2022-08-24T04:30:40.262Z,2.70
2022-08-24T04:33:07.779Z,2.63
2022-08-24T04:35:37.934Z,3.05
2022-08-24T04:38:05.127Z,3.33
2022-08-24T04:40:32.379Z,3.10
2022-08-24T04:42:59.679Z,3.42
2022-08-24T04:45:27.384Z,3.50
2022-08-24T04:47:54.697Z,2.63
2022-08-24T04:50:22.246Z,2.70
2022-08-24T04:52:49.579Z,2.75
2022-08-24T04:55:16.763Z,2.60
2022-08-24T04:57:43.998Z,2.65
2022-08-24T05:00:11.658Z,2.50
2022-08-24T05:02:44.695Z,2.65
2022-08-24T05:05:12.354Z,2.97
2022-08-24T05:07:39.800Z,2.58
2022-08-24T05:10:08.918Z,2.50
2022-08-24T05:12:36.137Z,2.08
2022-08-24T05:15:03.358Z,2.35
2022-08-24T05:17:30.572Z,2.25
2022-08-24T05:19:58.586Z,2.15
2022-08-24T05:22:25.810Z,2.00
2022-08-24T05:24:53.035Z,2.38
2022-08-24T05:27:20.185Z,2.00
2022-08-24T05:29:53.344Z,2.45
2022-08-24T05:32:20.628Z,2.30
2022-08-24T05:34:47.869Z,2.30
2022-08-24T05:37:14.982Z,2.42
2022-08-24T05:39:42.297Z,2.20
2022-08-24T05:42:09.536Z,2.40
2022-08-24T05:44:37.330Z,2.55
2022-08-24T05:47:04.608Z,2.03
2022-08-24T05:49:32.219Z,1.92
2022-08-24T05:51:59.923Z,2.00
2022-08-24T05:54:27.152Z,1.98
2022-08-24T05:56:55.046Z,1.85
2022-08-24T05:59:22.638Z,1.95
2022-08-24T06:01:50.045Z,2.10
2022-08-24T06:04:17.275Z,1.90
2022-08-24T06:06:44.413Z,1.92
2022-08-24T06:09:15.813Z,2.00
2022-08-24T06:11:43.087Z,1.90
2022-08-24T06:14:12.031Z,1.90
2022-08-24T06:16:42.002Z,1.98
2022-08-24T06:19:10.258Z,2.08
2022-08-24T06:21:37.983Z,2.08
2022-08-24T06:24:05.482Z,2.30
2022-08-24T06:26:51.175Z,2.35
2022-08-24T06:29:19.130Z,2.05
2022-08-24T06:31:47.537Z,2.10
2022-08-24T06:34:21.319Z,2.40
2022-08-24T06:36:48.440Z,2.47
2022-08-24T06:39:15.736Z,2.40
2022-08-24T06:41:44.182Z,2.17
2022-08-24T06:44:11.416Z,2.05
2022-08-24T06:46:38.632Z,2.00
2022-08-24T06:49:05.847Z,1.98
2022-08-24T06:51:33.071Z,1.92
2022-08-24T06:54:00.879Z,1.77
2022-08-24T06:56:28.385Z,2.30
2022-08-24T06:58:55.594Z,1.70
2022-08-24T07:01:24.493Z,1.90
2022-08-24T07:03:51.665Z,1.75
2022-08-24T07:06:19.339Z,1.90
2022-08-24T07:08:46.562Z,1.77
2022-08-24T07:11:14.766Z,1.60
2022-08-24T07:13:42.585Z,1.60
2022-08-24T07:16:10.161Z,1.63
2022-08-24T07:18:37.795Z,1.83
2022-08-24T07:21:08.399Z,1.63
2022-08-24T07:23:42.129Z,1.67
2022-08-24T07:26:21.670Z,1.60
2022-08-24T07:28:52.999Z,1.60
2022-08-24T07:31:21.049Z,1.67
2022-08-24T07:33:48.473Z,1.63
2022-08-24T07:36:22.605Z,2.10
2022-08-24T07:38:52.276Z,2.22
2022-08-24T07:41:40.333Z,1.60
2022-08-24T07:44:07.332Z,1.70
2022-08-24T07:46:34.959Z,1.90
2022-08-24T07:49:11.334Z,1.85
2022-08-24T07:51:44.818Z,1.92
2022-08-24T07:54:14.234Z,2.70
2022-08-24T07:56:42.079Z,3.10
2022-08-24T07:59:13.094Z,2.10
2022-08-24T08:01:41.368Z,1.98
2022-08-24T08:04:08.844Z,1.85
2022-08-24T08:06:36.075Z,2.20
2022-08-24T08:09:05.050Z,1.80
2022-08-24T08:11:32.740Z,2.05
2022-08-24T08:14:00.031Z,2.00
2022-08-24T08:16:27.753Z,2.20
2022-08-24T08:19:11.089Z,1.90
2022-08-24T08:22:04.721Z,1.80
2022-08-24T08:24:31.855Z,1.80
2022-08-24T08:26:59.270Z,1.70
2022-08-24T08:29:26.867Z,1.50
2022-08-24T08:31:54.527Z,1.67
2022-08-24T08:34:21.622Z,1.60
2022-08-24T08:36:49.033Z,1.70
2022-08-24T08:39:17.489Z,1.80
2022-08-24T08:42:05.042Z,1.50
2022-08-24T08:44:38.554Z,1.73
2022-08-24T08:47:23.816Z,1.60
2022-08-24T08:50:06.251Z,1.60
2022-08-24T08:52:52.030Z,1.95
2022-08-24T08:55:22.216Z,1.50
2022-08-24T08:57:51.226Z,1.50
2022-08-24T09:00:22.226Z,1.40
2022-08-24T09:02:52.166Z,1.67
2022-08-24T09:05:22.167Z,1.88
2022-08-24T09:07:49.260Z,1.90
2022-08-24T09:10:16.382Z,1.35
2022-08-24T09:12:52.591Z,1.73
2022-08-24T09:15:23.350Z,1.83
2022-08-24T09:18:14.683Z,1.83
2022-08-24T09:20:44.946Z,1.77
2022-08-24T09:23:27.399Z,1.77
2022-08-24T09:26:04.238Z,1.35
2022-08-24T09:28:50.254Z,1.50
2022-08-24T09:31:23.609Z,1.58
2022-08-24T09:33:53.858Z,1.80
2022-08-24T09:36:28.763Z,1.45
2022-08-24T09:38:55.880Z,1.30
2022-08-24T09:41:32.054Z,1.80
2022-08-24T09:44:03.523Z,1.50
2022-08-24T09:46:49.709Z,1.50
2022-08-24T09:49:53.007Z,1.67
2022-08-24T09:52:38.918Z,1.90
2022-08-24T09:55:17.899Z,1.88
2022-08-24T09:58:00.901Z,1.75
2022-08-24T10:00:31.815Z,1.67
2022-08-24T10:03:00.892Z,1.70
2022-08-24T10:05:36.379Z,1.75
2022-08-24T10:08:09.927Z,1.70
2022-08-24T10:10:42.434Z,1.77
2022-08-24T10:15:46.124Z,1.75
2022-08-24T10:18:13.218Z,1.55
2022-08-24T10:20:59.199Z,1.30
2022-08-24T10:23:45.181Z,1.33
2022-08-24T10:26:31.217Z,1.58
2022-08-24T10:29:01.386Z,1.77
2022-08-24T10:31:34.979Z,1.38
2022-08-24T10:34:23.786Z,1.63
2022-08-24T10:36:50.942Z,1.45
2022-08-24T10:39:42.380Z,1.30
2022-08-24T10:42:47.075Z,1.58
2022-08-24T10:45:32.842Z,1.63
2022-08-24T10:48:08.487Z,1.25
2022-08-24T10:50:44.973Z,1.38
2022-08-24T10:53:41.278Z,1.27
2022-08-24T10:56:16.038Z,1.30
2022-08-24T10:58:51.883Z,1.50
2022-08-24T11:01:26.992Z,1.55
2022-08-24T11:04:06.628Z,1.33
2022-08-24T11:06:38.827Z,1.40
2022-08-24T11:09:13.054Z,1.25
2022-08-24T11:11:47.682Z,1.27
2022-08-24T11:14:17.846Z,1.53
2022-08-24T11:16:47.167Z,1.40
2022-08-24T11:19:34.978Z,1.40
2022-08-24T11:22:06.632Z,1.48
2022-08-24T11:24:42.430Z,1.30
2022-08-24T11:27:20.150Z,1.60
2022-08-24T11:29:50.210Z,1.40
2022-08-24T11:32:38.019Z,1.27
2022-08-24T11:35:18.108Z,1.40
2022-08-24T11:37:46.342Z,1.30
2022-08-24T11:40:15.458Z,1.35
2022-08-24T11:42:42.575Z,1.35
2022-08-24T11:45:18.776Z,1.10
2022-08-24T11:47:50.409Z,1.50
2022-08-24T11:50:20.578Z,1.30
2022-08-24T11:53:02.208Z,1.42
2022-08-24T11:55:47.309Z,1.42
2022-08-24T11:58:34.390Z,1.70
2022-08-24T12:01:20.419Z,1.77
2022-08-24T12:03:56.279Z,1.23
2022-08-24T12:06:32.138Z,1.70
2022-08-24T12:09:11.814Z,1.60
2022-08-24T12:11:44.863Z,1.40
2022-08-24T12:14:14.933Z,1.90
2022-08-24T12:16:46.449Z,1.50
2022-08-24T12:19:20.343Z,1.67
2022-08-24T12:21:50.398Z,1.67
2022-08-24T12:24:24.453Z,1.50
2022-08-24T12:26:54.461Z,1.80
2022-08-24T12:29:21.554Z,2.50
2022-08-24T12:31:52.210Z,1.60
2022-08-24T12:34:22.956Z,1.60
2022-08-24T12:37:10.781Z,1.60
2022-08-24T12:39:49.407Z,1.90
2022-08-24T12:42:19.741Z,1.90
2022-08-24T12:45:10.422Z,1.90
2022-08-24T12:47:48.151Z,1.73
2022-08-24T12:50:25.560Z,1.95
2022-08-24T12:53:14.099Z,1.75
2022-08-24T12:55:41.417Z,1.73
2022-08-24T12:58:33.443Z,1.90
2022-08-24T13:01:18.541Z,2.05
2022-08-24T13:04:11.878Z,2.10
2022-08-24T13:06:38.970Z,2.17
2022-08-24T13:09:09.158Z,2.20
2022-08-24T13:11:38.432Z,2.20
2022-08-24T13:14:18.339Z,1.65
2022-08-24T13:17:07.523Z,1.92
2022-08-24T13:19:42.750Z,1.95
2022-08-24T13:22:09.933Z,1.95
2022-08-24T13:24:38.533Z,2.10
2022-08-24T13:27:15.880Z,1.73
2022-08-24T13:29:42.993Z,1.70
2022-08-24T13:32:17.643Z,2.00
2022-08-24T13:34:46.573Z,2.30
2022-08-24T13:37:14.391Z,2.10
2022-08-24T13:39:44.397Z,1.80
2022-08-24T13:42:30.409Z,2.00
2022-08-24T13:45:00.683Z,1.70
2022-08-24T13:47:27.801Z,1.77
2022-08-24T13:50:01.736Z,1.70
2022-08-24T13:52:56.791Z,1.90
2022-08-24T13:55:26.784Z,2.08
2022-08-24T13:58:12.458Z,1.98
2022-08-24T14:01:03.062Z,1.83
2022-08-24T14:03:30.163Z,1.90
2022-08-24T14:06:00.419Z,2.17
2022-08-24T14:08:59.885Z,1.80
2022-08-24T14:11:45.578Z,2.10
2022-08-24T14:14:22.595Z,1.80
2022-08-24T14:17:19.356Z,1.90
2022-08-24T14:20:09.074Z,1.85
2022-08-24T14:22:55.042Z,1.90
2022-08-24T14:25:27.040Z,2.10
2022-08-24T14:28:00.414Z,2.00
2022-08-24T14:30:28.049Z,1.90
2022-08-24T14:33:01.153Z,2.35
2022-08-24T14:35:28.629Z,2.25
2022-08-24T14:38:24.514Z,1.75
2022-08-24T14:41:03.893Z,1.77
2022-08-24T14:43:49.805Z,2.03
2022-08-24T14:46:16.994Z,1.90
2022-08-24T14:48:51.434Z,1.60
2022-08-24T14:51:37.672Z,1.83
2022-08-24T14:54:23.336Z,1.83
2022-08-24T14:57:12.927Z,1.80
2022-08-24T15:00:01.803Z,1.75
2022-08-24T15:02:42.161Z,1.80
2022-08-24T15:05:22.857Z,1.50
2022-08-24T15:07:56.387Z,1.77
2022-08-24T15:10:26.231Z,1.85
2022-08-24T15:13:04.114Z,2.20
2022-08-24T15:15:34.723Z,1.83
2022-08-24T15:18:06.633Z,1.83
2022-08-24T15:20:36.939Z,2.10
2022-08-24T15:23:08.490Z,1.77
2022-08-24T15:25:38.630Z,1.80
2022-08-24T15:28:09.682Z,1.55
2022-08-24T15:30:39.841Z,1.70
2022-08-24T15:33:19.062Z,1.77
2022-08-24T15:35:51.724Z,1.50
2022-08-24T15:38:23.582Z,1.50
2022-08-24T15:41:04.103Z,1.63
2022-08-24T15:43:31.583Z,1.67
2022-08-24T15:45:58.906Z,2.03
2022-08-24T15:48:26.700Z,1.55
2022-08-24T15:50:55.947Z,2.22
2022-08-24T15:53:34.388Z,1.50
2022-08-24T15:56:24.609Z,1.60
2022-08-24T15:58:51.833Z,2.03
2022-08-24T16:01:39.350Z,1.52
2022-08-24T16:04:06.562Z,1.48
2022-08-24T16:06:33.684Z,1.55
2022-08-24T16:09:15.049Z,1.80
2022-08-24T16:11:49.486Z,2.00
2022-08-24T16:14:26.558Z,1.80
2022-08-24T16:16:56.949Z,1.83
2022-08-24T16:19:26.906Z,1.50
2022-08-24T16:21:56.335Z,1.70
2022-08-24T16:24:28.522Z,1.75
2022-08-24T16:27:04.602Z,1.63
2022-08-24T16:29:37.891Z,1.60
2022-08-24T16:32:23.336Z,1.70
2022-08-24T16:35:02.671Z,1.63
2022-08-24T16:37:29.821Z,2.08
2022-08-24T16:39:57.039Z,1.77
2022-08-24T16:42:29.093Z,1.85
2022-08-24T16:44:57.075Z,2.03
2022-08-24T16:47:24.919Z,1.90
2022-08-24T16:49:52.322Z,2.38
2022-08-24T16:52:19.895Z,2.00
2022-08-24T16:54:47.295Z,1.80
2022-08-24T16:57:17.267Z,2.20
2022-08-24T16:59:45.688Z,2.20
2022-08-24T17:02:13.630Z,2.30
2022-08-24T17:04:42.527Z,2.20
2022-08-24T17:07:11.128Z,2.63
2022-08-24T17:09:39.567Z,2.13
2022-08-24T17:12:07.387Z,2.20
2022-08-24T17:14:34.567Z,2.08
2022-08-24T17:17:01.780Z,1.98
2022-08-24T17:19:29.960Z,1.92
2022-08-24T17:21:58.259Z,2.10
2022-08-24T17:24:25.434Z,2.45
2022-08-24T17:26:54.467Z,2.30
2022-08-24T17:29:22.232Z,2.50
2022-08-24T17:31:50.028Z,2.28
2022-08-24T17:34:18.007Z,2.22
2022-08-24T17:36:45.678Z,2.13
2022-08-24T17:39:14.186Z,2.38
2022-08-24T17:41:41.339Z,2.53
2022-08-24T17:44:13.134Z,2.00
2022-08-24T17:46:40.734Z,2.07
2022-08-24T17:49:09.669Z,1.95
2022-08-24T17:51:38.237Z,3.10
2022-08-24T17:54:08.282Z,3.10
2022-08-24T17:56:37.810Z,3.50
2022-08-24T17:59:24.937Z,2.90
2022-08-24T18:01:54.461Z,2.40
2022-08-24T18:04:22.549Z,2.83
2022-08-24T18:06:50.045Z,3.10
2022-08-24T18:09:24.379Z,2.55
2022-08-24T18:11:51.726Z,3.30
2022-08-24T18:14:18.866Z,3.35
2022-08-24T18:16:53.950Z,2.92
2022-08-24T18:19:24.834Z,2.83
2022-08-24T18:21:52.347Z,2.60
2022-08-24T18:24:19.643Z,3.28
2022-08-24T18:26:47.958Z,2.90
2022-08-24T18:29:20.784Z,2.50
2022-08-24T18:31:48.760Z,2.72
2022-08-24T18:34:18.741Z,2.92
2022-08-24T18:36:46.002Z,2.70
2022-08-24T18:39:13.411Z,2.33
2022-08-24T18:41:41.331Z,3.00
2022-08-24T18:44:13.563Z,2.72
2022-08-24T18:46:43.585Z,2.50
2022-08-24T18:49:10.785Z,2.10
2022-08-24T18:51:38.319Z,2.58
2022-08-24T18:54:07.149Z,2.60
2022-08-24T18:56:34.728Z,2.40
2022-08-24T18:59:02.138Z,3.00
2022-08-24T19:01:29.707Z,3.08
2022-08-24T19:03:57.230Z,2.75
2022-08-24T19:06:25.027Z,2.70
2022-08-24T19:08:52.213Z,2.35
2022-08-24T19:11:20.801Z,2.97
2022-08-24T19:13:47.949Z,2.70
2022-08-24T19:16:15.180Z,2.70
2022-08-24T19:18:42.325Z,3.85
2022-08-24T19:21:09.492Z,3.42
2022-08-24T19:23:38.978Z,3.50
2022-08-24T19:26:06.174Z,2.72
2022-08-24T19:28:33.324Z,3.05
2022-08-24T19:31:01.805Z,3.10
2022-08-24T19:33:32.174Z,3.03
2022-08-24T19:35:59.910Z,3.38
2022-08-24T19:38:27.013Z,3.97
2022-08-24T19:40:55.584Z,3.90
2022-08-24T19:43:24.857Z,3.08
2022-08-24T19:46:08.522Z,3.50
2022-08-24T19:48:37.178Z,3.22
2022-08-24T19:51:05.957Z,3.00
2022-08-24T19:53:34.665Z,3.20
2022-08-24T19:56:03.972Z,3.17
2022-08-24T19:58:50.661Z,3.35
2022-08-24T20:01:19.343Z,3.28
2022-08-24T20:03:46.619Z,2.70
2022-08-24T20:06:13.874Z,2.63
2022-08-24T20:08:41.378Z,2.70
2022-08-24T20:11:09.551Z,2.75
2022-08-24T20:13:36.879Z,2.65
2022-08-24T20:16:10.585Z,3.13
2022-08-24T20:18:38.360Z,3.03
2022-08-24T20:21:05.606Z,2.70
2022-08-24T20:23:33.520Z,2.60
2022-08-24T20:26:01.796Z,3.38
2022-08-24T20:28:37.402Z,3.20
2022-08-24T20:31:05.423Z,3.25
2022-08-24T20:33:32.617Z,3.22
2022-08-24T20:36:00.019Z,2.88
2022-08-24T20:38:29.306Z,2.90
2022-08-24T20:40:59.550Z,3.30
2022-08-24T20:43:26.760Z,3.53
2022-08-24T20:45:53.972Z,2.95
2022-08-24T20:48:27.617Z,3.25
2022-08-24T20:50:54.825Z,3.80
2022-08-24T20:53:22.022Z,3.45
2022-08-24T20:55:49.178Z,3.20
2022-08-24T20:58:17.890Z,3.47
2022-08-24T21:00:46.025Z,3.10
2022-08-24T21:03:18.423Z,2.90
2022-08-24T21:05:46.178Z,3.15
2022-08-24T21:08:14.151Z,2.83
2022-08-24T21:10:42.253Z,3.25
2022-08-24T21:13:09.584Z,2.85
2022-08-24T21:15:37.993Z,2.83
2022-08-24T21:18:05.498Z,2.45
2022-08-24T21:20:32.812Z,2.50
2022-08-24T21:22:59.987Z,3.03
2022-08-24T21:25:27.442Z,3.20
2022-08-24T21:27:54.764Z,2.97
2022-08-24T21:30:23.000Z,2.90
2022-08-24T21:33:09.000Z,3.10
2022-08-24T21:35:36.835Z,2.92
2022-08-24T21:38:04.542Z,3.28
2022-08-24T21:40:31.898Z,2.72
2022-08-24T21:42:59.138Z,2.97
2022-08-24T21:45:27.344Z,2.85
2022-08-24T21:47:54.570Z,3.15
2022-08-24T21:50:25.498Z,3.28
2022-08-24T21:52:53.992Z,2.92
2022-08-24T21:55:21.669Z,3.20
2022-08-24T21:57:49.177Z,3.13
2022-08-24T22:00:18.783Z,3.40
2022-08-24T22:02:47.356Z,3.20
2022-08-24T22:05:15.595Z,3.65
2022-08-24T22:07:42.795Z,3.28
2022-08-24T22:10:11.932Z,3.30
2022-08-24T22:12:40.525Z,3.22
2022-08-24T22:15:08.620Z,3.70
2022-08-24T22:17:35.858Z,3.60
2022-08-24T22:20:03.329Z,3.38
2022-08-24T22:22:30.632Z,3.67
2022-08-24T22:24:57.792Z,3.33
2022-08-24T22:27:25.241Z,3.50
2022-08-24T22:29:52.946Z,3.65
2022-08-24T22:32:20.137Z,3.45
2022-08-24T22:34:47.377Z,3.50
2022-08-24T22:37:14.524Z,3.63
2022-08-24T22:39:41.705Z,3.30
2022-08-24T22:42:09.004Z,4.00
2022-08-24T22:44:36.150Z,4.20
2022-08-24T22:47:06.904Z,3.83
2022-08-24T22:49:43.622Z,3.78
2022-08-24T22:52:12.021Z,3.65
2022-08-24T22:54:39.131Z,4.13
2022-08-24T22:57:06.613Z,4.20
2022-08-24T22:59:35.753Z,4.53
2022-08-24T23:02:08.516Z,4.55
2022-08-24T23:04:37.593Z,4.18
2022-08-24T23:07:05.286Z,4.00
2022-08-24T23:09:41.613Z,4.18
2022-08-24T23:12:12.548Z,4.25
2022-08-24T23:14:40.370Z,4.55
2022-08-24T23:17:07.542Z,4.43
2022-08-24T23:19:53.482Z,4.70
2022-08-24T23:22:21.196Z,4.32
2022-08-24T23:24:48.322Z,4.88
2022-08-24T23:27:16.758Z,4.55
2022-08-24T23:29:44.564Z,4.45
2022-08-24T23:32:11.746Z,4.25
2022-08-24T23:34:38.978Z,4.70
2022-08-24T23:37:06.391Z,4.65
2022-08-24T23:39:33.738Z,4.28
2022-08-24T23:42:01.020Z,5.30
2022-08-24T23:44:29.998Z,4.93
2022-08-24T23:46:58.027Z,5.10
2022-08-24T23:49:26.051Z,4.82
2022-08-24T23:51:53.230Z,5.38
2022-08-24T23:54:20.438Z,4.50
2022-08-24T23:56:48.366Z,5.20
2022-08-24T23:59:17.191Z,4.72
